Connecticut — WCY4995 — position and weather

sailwx.info

Track history (hours):
 
Tides and Currents Weather Stations Pressure Air Temp Water Temp Dewpoint Dewpoint Depression Visibility Wind Speed Wind Dir Waves Ship Positions

Oceanographic research ship Connecticut (USA)

Detailed information on ship capabilities available from University of Delaware's Ocean Information Center.

Owner: CONNECTICUT, STATE OF, GROTON, CT. More information available from US FCC via Universal Licensing System and Coast Guard Vessel Documentation Center.

Last reported at 2017-Dec-10 05:51 UTC. Time now 2017-Dec-18 18:14 UTC.
Position N 42°21' W 070°38'.
Warning: this ship's position is 8 days out of date.

; draft 3 m.

Type: Other ship. MMSI: 367359940.

Date/timePositionNaut miles runAvg speedWind from/ knotsBaromVisibWave heightAir tempDewpointWater temp
2017-Dec-10 05:51N 42°21' W 070°38'3 9.3
2017-Dec-10 05:30N 42°24' W 070°40'5 9.2
2017-Dec-10 05:00N 42°29' W 070°39'4 9.0
2017-Dec-10 04:31N 42°33' W 070°36'5 9.4
2017-Dec-10 04:00N 42°36' W 070°32'5 9.3
2017-Dec-10 03:30N 42°41' W 070°31'5 9.5
2017-Dec-10 03:00N 42°45' W 070°29'5 9.5
2017-Dec-10 02:31N 42°50' W 070°27'1 0.0
2017-Dec-08 05:58N 42°49' W 070°27'2 4.8
2017-Dec-08 05:30N 42°46' W 070°28'2 4.8
2017-Dec-08 05:01N 42°44' W 070°28'3 5.3
2017-Dec-08 04:30N 42°41' W 070°29'3 5.5
2017-Dec-08 04:00N 42°39' W 070°30'3 5.3
2017-Dec-08 03:30N 42°36' W 070°31'3 5.3
2017-Dec-08 02:59N 42°34' W 070°33'2 5.1
2017-Dec-08 02:30N 42°31' W 070°34'0 0.8
2017-Dec-08 02:00N 42°31' W 070°34'0 0.5
2017-Dec-08 01:31N 42°31' W 070°34'0 0.5
2017-Dec-08 01:00N 42°31' W 070°33'0 0.7
2017-Dec-08 00:30N 42°31' W 070°34'3 5.3
2017-Dec-08 00:00N 42°33' W 070°37'4 7.4
2017-Dec-07 23:31N 42°35' W 070°41'0 0.7
2017-Dec-07 23:00N 42°35' W 070°41'0 0.1
2017-Dec-07 22:30N 42°35' W 070°41'0 0.0
2017-Dec-07 22:00N 42°35' W 070°41'0 0.1
2017-Dec-07 21:31N 42°35' W 070°41'0 0.2
2017-Dec-07 21:00N 42°35' W 070°41'0 0.4
2017-Dec-07 20:30N 42°35' W 070°41'0 0.6
2017-Dec-07 20:01N 42°35' W 070°41'4 7.9
2017-Dec-07 19:31N 42°33' W 070°37'2 4.9
2017-Dec-07 19:01N 42°31' W 070°34'0 0.1
2017-Dec-07 18:30N 42°31' W 070°34'0 0.3
2017-Dec-07 18:00N 42°31' W 070°34'0 0.1
2017-Dec-07 17:30N 42°31' W 070°34'0 0.0
2017-Dec-07 17:00N 42°31' W 070°34'0 0.1
2017-Dec-07 16:30N 42°31' W 070°34'3 6.4
2017-Dec-07 16:00N 42°28' W 070°34'5 9.3
2017-Dec-07 15:30N 42°24' W 070°34'5 9.3
2017-Dec-07 15:00N 42°19' W 070°33'  
2017-Dec-02 11:29N 41°15' W 072°16'3 6.5
2017-Dec-02 11:00N 41°15' W 072°20'1 2.8
2017-Dec-02 10:30N 41°15' W 072°19'1 1.5
2017-Dec-02 10:00N 41°14' W 072°18'2 2.7
2017-Dec-02 09:26N 41°15' W 072°20'1 1.8
2017-Dec-02 09:00N 41°16' W 072°21'2 3.2
2017-Dec-02 08:30N 41°15' W 072°19'1 1.7
2017-Dec-02 07:55N 41°14' W 072°18'1 2.2
2017-Dec-02 07:30N 41°14' W 072°19'2 3.3
2017-Dec-02 07:00N 41°15' W 072°21'1 1.8
2017-Dec-02 06:30N 41°15' W 072°20'1 2.9
2017-Dec-02 06:00N 41°14' W 072°18'1 1.3
2017-Dec-02 05:30N 41°15' W 072°19'2 3.5
2017-Dec-02 05:00N 41°16' W 072°21'1 1.9
2017-Dec-02 04:30N 41°15' W 072°20'1 2.3
2017-Dec-02 04:00N 41°14' W 072°18'0 0.1
2017-Dec-02 03:30N 41°14' W 072°18'1 2.7
2017-Dec-02 03:00N 41°15' W 072°20'0 0.7
2017-Dec-02 02:30N 41°15' W 072°19'1 1.5
2017-Dec-02 02:00N 41°15' W 072°19'0 0.8
2017-Dec-02 01:29N 41°14' W 072°18'1 2.8
2017-Dec-02 01:00N 41°15' W 072°20'0 0.3
2017-Dec-02 00:30N 41°15' W 072°20'1 1.7
2017-Dec-01 23:51N 41°14' W 072°19'1 2.1
2017-Dec-01 23:30N 41°14' W 072°18'2 2.2
2017-Dec-01 22:29N 41°16' W 072°16'5 0.6
2017-Dec-01 15:09N 41°14' W 072°21'0 0.7
2017-Dec-01 15:00N 41°14' W 072°21'0 0.3
2017-Dec-01 14:29N 41°14' W 072°21'0 0.4
2017-Dec-01 14:00N 41°14' W 072°21'1 2.1
2017-Dec-01 13:29N 41°15' W 072°21'2 3.5
2017-Dec-01 13:00N 41°15' W 072°23'0 0.2
2017-Dec-01 12:30N 41°15' W 072°23'0 0.7
2017-Dec-01 12:00N 41°15' W 072°23'3 6.4
2017-Dec-01 11:30N 41°15' W 072°19'4 7.4
2017-Dec-01 11:00N 41°17' W 072°15'3 2.9
2017-Dec-01 10:07N 41°14' W 072°15'1 4.3
2017-Dec-01 10:00N 41°15' W 072°15'1 2.5
2017-Dec-01 09:25N 41°16' W 072°15'2 1.6
2017-Dec-01 08:15N 41°14' W 072°15'1 2.4
2017-Dec-01 07:58N 41°15' W 072°15'1 2.2
2017-Dec-01 07:25N 41°16' W 072°15'2 1.4
2017-Dec-01 06:17N 41°15' W 072°14'0 0.7
2017-Dec-01 06:00N 41°15' W 072°15'2 3.0
2017-Dec-01 05:30N 41°16' W 072°15'0 0.3
2017-Dec-01 04:43N 41°16' W 072°15'1 2.4
2017-Dec-01 04:20N 41°15' W 072°15'1 2.7
2017-Dec-01 04:00N 41°14' W 072°15'1 2.2
2017-Dec-01 03:30N 41°15' W 072°15'1 1.9
2017-Dec-01 02:50N 41°17' W 072°15'1 2.4
2017-Dec-01 02:30N 41°16' W 072°15'2 2.9
2017-Dec-01 01:58N 41°14' W 072°15'1 2.1
2017-Dec-01 01:27N 41°15' W 072°15'2 3.3
2017-Dec-01 00:58N 41°17' W 072°15'3 2.7
2017-Nov-30 23:59N 41°14' W 072°15'2 2.9
2017-Nov-30 23:27N 41°14' W 072°17'1 2.2
2017-Nov-30 22:58N 41°14' W 072°18'0 0.5
2017-Nov-30 22:06N 41°14' W 072°17'0 3.7
2017-Nov-30 22:00N 41°14' W 072°18'1 2.8
2017-Nov-30 21:30N 41°14' W 072°16'4 0.5
2017-Nov-30 12:19N 41°16' W 072°11'1 2.3
2017-Nov-30 11:57N 41°16' W 072°11'0 0.1
2017-Nov-30 10:26N 41°16' W 072°11'1 2.1
2017-Nov-30 10:00N 41°16' W 072°11'0 0.0
2017-Nov-30 07:51N 41°16' W 072°11'1 2.7
2017-Nov-30 07:30N 41°16' W 072°11'0 0.0
2017-Nov-30 06:18N 41°16' W 072°11'1 2.6
2017-Nov-30 05:54N 41°16' W 072°10'  
Track history (hours):
 
Tides and Currents Weather Stations Pressure Air Temp Water Temp Dewpoint Dewpoint Depression Visibility Wind Speed Wind Dir Waves Ship Positions

Oceanographic research ship Connecticut (USA)

Detailed information on ship capabilities available from University of Delaware's Ocean Information Center.

Owner: CONNECTICUT, STATE OF, GROTON, CT. More information available from US FCC via Universal Licensing System and Coast Guard Vessel Documentation Center.

Last reported at 2017-Dec-10 05:51 UTC. Time now 2017-Dec-18 18:14 UTC.
Position N 42°21' W 070°38'.
Warning: this ship's position is 8 days out of date.

; draft 3 m.

Type: Other ship. MMSI: 367359940.

Date/timePositionNaut miles runAvg speedWind from/ knotsBaromVisibWave heightAir tempDewpointWater temp
2017-Dec-10 05:51N 42°21' W 070°38'3 9.3
2017-Dec-10 05:30N 42°24' W 070°40'5 9.2
2017-Dec-10 05:00N 42°29' W 070°39'4 9.0
2017-Dec-10 04:31N 42°33' W 070°36'5 9.4
2017-Dec-10 04:00N 42°36' W 070°32'5 9.3
2017-Dec-10 03:30N 42°41' W 070°31'5 9.5
2017-Dec-10 03:00N 42°45' W 070°29'5 9.5
2017-Dec-10 02:31N 42°50' W 070°27'1 0.0
2017-Dec-08 05:58N 42°49' W 070°27'2 4.8
2017-Dec-08 05:30N 42°46' W 070°28'2 4.8
2017-Dec-08 05:01N 42°44' W 070°28'3 5.3
2017-Dec-08 04:30N 42°41' W 070°29'3 5.5
2017-Dec-08 04:00N 42°39' W 070°30'3 5.3
2017-Dec-08 03:30N 42°36' W 070°31'3 5.3
2017-Dec-08 02:59N 42°34' W 070°33'2 5.1
2017-Dec-08 02:30N 42°31' W 070°34'0 0.8
2017-Dec-08 02:00N 42°31' W 070°34'0 0.5
2017-Dec-08 01:31N 42°31' W 070°34'0 0.5
2017-Dec-08 01:00N 42°31' W 070°33'0 0.7
2017-Dec-08 00:30N 42°31' W 070°34'3 5.3
2017-Dec-08 00:00N 42°33' W 070°37'4 7.4
2017-Dec-07 23:31N 42°35' W 070°41'0 0.7
2017-Dec-07 23:00N 42°35' W 070°41'0 0.1
2017-Dec-07 22:30N 42°35' W 070°41'0 0.0
2017-Dec-07 22:00N 42°35' W 070°41'0 0.1
2017-Dec-07 21:31N 42°35' W 070°41'0 0.2
2017-Dec-07 21:00N 42°35' W 070°41'0 0.4
2017-Dec-07 20:30N 42°35' W 070°41'0 0.6
2017-Dec-07 20:01N 42°35' W 070°41'4 7.9
2017-Dec-07 19:31N 42°33' W 070°37'2 4.9
2017-Dec-07 19:01N 42°31' W 070°34'0 0.1
2017-Dec-07 18:30N 42°31' W 070°34'0 0.3
2017-Dec-07 18:00N 42°31' W 070°34'0 0.1
2017-Dec-07 17:30N 42°31' W 070°34'0 0.0
2017-Dec-07 17:00N 42°31' W 070°34'0 0.1
2017-Dec-07 16:30N 42°31' W 070°34'3 6.4
2017-Dec-07 16:00N 42°28' W 070°34'5 9.3
2017-Dec-07 15:30N 42°24' W 070°34'5 9.3
2017-Dec-07 15:00N 42°19' W 070°33'  
2017-Dec-02 11:29N 41°15' W 072°16'3 6.5
2017-Dec-02 11:00N 41°15' W 072°20'1 2.8
2017-Dec-02 10:30N 41°15' W 072°19'1 1.5
2017-Dec-02 10:00N 41°14' W 072°18'2 2.7
2017-Dec-02 09:26N 41°15' W 072°20'1 1.8
2017-Dec-02 09:00N 41°16' W 072°21'2 3.2
2017-Dec-02 08:30N 41°15' W 072°19'1 1.7
2017-Dec-02 07:55N 41°14' W 072°18'1 2.2
2017-Dec-02 07:30N 41°14' W 072°19'2 3.3
2017-Dec-02 07:00N 41°15' W 072°21'1 1.8
2017-Dec-02 06:30N 41°15' W 072°20'1 2.9
2017-Dec-02 06:00N 41°14' W 072°18'1 1.3
2017-Dec-02 05:30N 41°15' W 072°19'2 3.5
2017-Dec-02 05:00N 41°16' W 072°21'1 1.9
2017-Dec-02 04:30N 41°15' W 072°20'1 2.3
2017-Dec-02 04:00N 41°14' W 072°18'0 0.1
2017-Dec-02 03:30N 41°14' W 072°18'1 2.7
2017-Dec-02 03:00N 41°15' W 072°20'0 0.7
2017-Dec-02 02:30N 41°15' W 072°19'1 1.5
2017-Dec-02 02:00N 41°15' W 072°19'0 0.8
2017-Dec-02 01:29N 41°14' W 072°18'1 2.8
2017-Dec-02 01:00N 41°15' W 072°20'0 0.3
2017-Dec-02 00:30N 41°15' W 072°20'1 1.7
2017-Dec-01 23:51N 41°14' W 072°19'1 2.1
2017-Dec-01 23:30N 41°14' W 072°18'2 2.2
2017-Dec-01 22:29N 41°16' W 072°16'5 0.6
2017-Dec-01 15:09N 41°14' W 072°21'0 0.7
2017-Dec-01 15:00N 41°14' W 072°21'0 0.3
2017-Dec-01 14:29N 41°14' W 072°21'0 0.4
2017-Dec-01 14:00N 41°14' W 072°21'1 2.1
2017-Dec-01 13:29N 41°15' W 072°21'2 3.5
2017-Dec-01 13:00N 41°15' W 072°23'0 0.2
2017-Dec-01 12:30N 41°15' W 072°23'0 0.7
2017-Dec-01 12:00N 41°15' W 072°23'3 6.4
2017-Dec-01 11:30N 41°15' W 072°19'4 7.4
2017-Dec-01 11:00N 41°17' W 072°15'3 2.9
2017-Dec-01 10:07N 41°14' W 072°15'1 4.3
2017-Dec-01 10:00N 41°15' W 072°15'1 2.5
2017-Dec-01 09:25N 41°16' W 072°15'2 1.6
2017-Dec-01 08:15N 41°14' W 072°15'1 2.4
2017-Dec-01 07:58N 41°15' W 072°15'1 2.2
2017-Dec-01 07:25N 41°16' W 072°15'2 1.4
2017-Dec-01 06:17N 41°15' W 072°14'0 0.7
2017-Dec-01 06:00N 41°15' W 072°15'2 3.0
2017-Dec-01 05:30N 41°16' W 072°15'0 0.3
2017-Dec-01 04:43N 41°16' W 072°15'1 2.4
2017-Dec-01 04:20N 41°15' W 072°15'1 2.7
2017-Dec-01 04:00N 41°14' W 072°15'1 2.2
2017-Dec-01 03:30N 41°15' W 072°15'1 1.9
2017-Dec-01 02:50N 41°17' W 072°15'1 2.4
2017-Dec-01 02:30N 41°16' W 072°15'2 2.9
2017-Dec-01 01:58N 41°14' W 072°15'1 2.1
2017-Dec-01 01:27N 41°15' W 072°15'2 3.3
2017-Dec-01 00:58N 41°17' W 072°15'3 2.7
2017-Nov-30 23:59N 41°14' W 072°15'2 2.9
2017-Nov-30 23:27N 41°14' W 072°17'1 2.2
2017-Nov-30 22:58N 41°14' W 072°18'0 0.5
2017-Nov-30 22:06N 41°14' W 072°17'0 3.7
2017-Nov-30 22:00N 41°14' W 072°18'1 2.8
2017-Nov-30 21:30N 41°14' W 072°16'4 0.5
2017-Nov-30 12:19N 41°16' W 072°11'1 2.3
2017-Nov-30 11:57N 41°16' W 072°11'0 0.1
2017-Nov-30 10:26N 41°16' W 072°11'1 2.1
2017-Nov-30 10:00N 41°16' W 072°11'0 0.0
2017-Nov-30 07:51N 41°16' W 072°11'1 2.7
2017-Nov-30 07:30N 41°16' W 072°11'0 0.0
2017-Nov-30 06:18N 41°16' W 072°11'1 2.6
2017-Nov-30 05:54N 41°16' W 072°10'  

Dump ship's entire track history